createdAt,value
2022-12-29T00:02:28.805Z,35.75
2022-12-29T00:05:13.654Z,34.71
2022-12-29T00:07:58.269Z,34.52
2022-12-29T00:10:43.214Z,35.14
2022-12-29T00:13:27.900Z,35.15
2022-12-29T00:16:12.730Z,34.90
2022-12-29T00:18:57.876Z,34.70
2022-12-29T00:21:42.623Z,35.46
2022-12-29T00:24:27.355Z,34.26
2022-12-29T00:27:12.244Z,35.27
2022-12-29T00:29:56.965Z,35.30
2022-12-29T00:32:41.674Z,35.13
2022-12-29T00:35:26.553Z,34.99
2022-12-29T00:38:11.272Z,35.53
2022-12-29T00:40:56.118Z,35.66
2022-12-29T00:43:40.754Z,35.30
2022-12-29T00:46:25.616Z,35.12
2022-12-29T00:49:10.337Z,35.90
2022-12-29T00:51:55.243Z,35.44
2022-12-29T00:54:39.969Z,35.04
2022-12-29T00:57:24.654Z,35.98
2022-12-29T01:00:09.358Z,35.96
2022-12-29T01:02:54.115Z,35.73
2022-12-29T01:05:40.326Z,36.58
2022-12-29T01:08:25.003Z,35.77
2022-12-29T01:11:09.769Z,35.70
2022-12-29T01:13:54.415Z,35.52
2022-12-29T01:16:39.146Z,36.02
2022-12-29T01:19:23.875Z,36.23
2022-12-29T01:22:08.531Z,35.93
2022-12-29T01:24:53.345Z,35.75
2022-12-29T01:27:38.147Z,35.88
2022-12-29T01:30:22.988Z,36.64
2022-12-29T01:33:07.658Z,36.82
2022-12-29T01:35:52.485Z,36.77
2022-12-29T01:38:37.259Z,36.64
2022-12-29T01:41:21.975Z,36.45
2022-12-29T01:44:06.578Z,36.34
2022-12-29T01:46:52.366Z,35.91
2022-12-29T01:49:36.933Z,36.35
2022-12-29T01:52:21.817Z,36.77
2022-12-29T01:55:06.579Z,37.30
2022-12-29T01:57:51.425Z,36.23
2022-12-29T02:00:36.322Z,36.81
2022-12-29T02:03:20.967Z,37.03
2022-12-29T02:06:05.651Z,36.89
2022-12-29T02:08:50.419Z,36.90
2022-12-29T02:11:35.262Z,36.49
2022-12-29T02:14:19.999Z,37.28
2022-12-29T02:17:04.870Z,37.64
2022-12-29T02:19:49.670Z,36.09
2022-12-29T02:22:34.461Z,36.02
2022-12-29T02:25:19.262Z,36.30
2022-12-29T02:28:04.059Z,36.47
2022-12-29T02:30:48.907Z,36.53
2022-12-29T02:33:33.642Z,36.24
2022-12-29T02:36:18.388Z,36.16
2022-12-29T02:39:02.996Z,35.40
2022-12-29T02:41:47.761Z,35.46
2022-12-29T02:44:32.443Z,34.91
2022-12-29T02:47:17.356Z,34.96
2022-12-29T02:50:03.674Z,35.04
2022-12-29T02:52:48.593Z,34.68
2022-12-29T02:55:33.458Z,34.59
2022-12-29T02:58:18.678Z,34.19
2022-12-29T03:01:03.547Z,35.64
2022-12-29T03:03:48.764Z,36.16
2022-12-29T03:06:33.510Z,35.49
2022-12-29T03:09:19.427Z,35.43
2022-12-29T03:12:04.664Z,34.31
2022-12-29T03:14:49.517Z,34.66
2022-12-29T03:17:34.247Z,34.49
2022-12-29T03:20:18.964Z,33.84
2022-12-29T03:23:03.633Z,35.00
2022-12-29T03:25:48.399Z,34.67
2022-12-29T03:28:33.211Z,34.22
2022-12-29T03:31:19.437Z,33.80
2022-12-29T03:34:04.121Z,34.31
2022-12-29T03:36:48.760Z,36.07
2022-12-29T03:39:33.535Z,35.69
2022-12-29T03:42:18.654Z,35.70
2022-12-29T03:45:03.459Z,36.10
2022-12-29T03:47:48.113Z,36.23
2022-12-29T03:50:32.849Z,36.03
2022-12-29T03:53:17.408Z,37.34
2022-12-29T03:56:02.019Z,37.34
2022-12-29T03:58:46.799Z,36.93
2022-12-29T04:01:31.608Z,36.12
2022-12-29T04:04:16.791Z,35.12
2022-12-29T04:07:02.524Z,34.42
2022-12-29T04:09:47.349Z,34.19
2022-12-29T04:12:32.085Z,34.42
2022-12-29T04:15:16.860Z,34.09
2022-12-29T04:18:03.060Z,34.44
2022-12-29T04:20:47.923Z,34.09
2022-12-29T04:23:32.782Z,34.58
2022-12-29T04:26:17.525Z,34.06
2022-12-29T04:29:02.355Z,33.01
2022-12-29T04:31:47.036Z,33.21
2022-12-29T04:34:32.412Z,34.60
2022-12-29T04:37:17.053Z,34.54
2022-12-29T04:40:01.837Z,34.58
2022-12-29T04:42:46.525Z,36.50
2022-12-29T04:45:31.283Z,35.69
2022-12-29T04:48:16.014Z,36.34
2022-12-29T04:51:00.781Z,34.40
2022-12-29T04:53:45.545Z,33.71
2022-12-29T04:56:30.192Z,33.55
2022-12-29T04:59:15.045Z,33.28
2022-12-29T05:01:59.909Z,33.15
2022-12-29T05:04:45.245Z,33.18
2022-12-29T05:07:29.871Z,34.24
2022-12-29T05:10:14.578Z,35.02
2022-12-29T05:12:59.281Z,35.98
2022-12-29T05:15:44.181Z,36.00
2022-12-29T05:18:28.866Z,34.46
2022-12-29T05:21:13.628Z,34.51
2022-12-29T05:23:58.358Z,34.43
2022-12-29T05:26:43.112Z,35.18
2022-12-29T05:29:27.913Z,35.15
2022-12-29T05:32:12.688Z,35.57
2022-12-29T05:34:57.374Z,36.36
2022-12-29T05:37:41.959Z,36.29
2022-12-29T05:40:26.773Z,35.16
2022-12-29T05:43:11.436Z,34.15
2022-12-29T05:45:56.340Z,33.60
2022-12-29T05:48:41.069Z,33.89
2022-12-29T05:51:25.739Z,33.91
2022-12-29T05:54:10.549Z,34.94
2022-12-29T05:56:55.465Z,34.78
2022-12-29T05:59:40.246Z,35.04
2022-12-29T06:02:25.012Z,34.51
2022-12-29T06:05:10.285Z,34.40
2022-12-29T06:07:54.990Z,34.60
2022-12-29T06:10:39.916Z,35.39
2022-12-29T06:13:24.579Z,35.67
2022-12-29T06:16:09.461Z,35.92
2022-12-29T06:18:54.832Z,36.26
2022-12-29T06:21:39.637Z,36.19
2022-12-29T06:24:24.539Z,37.30
2022-12-29T06:27:09.292Z,36.11
2022-12-29T06:29:53.969Z,35.53
2022-12-29T06:32:38.719Z,35.09
2022-12-29T06:35:23.493Z,36.09
2022-12-29T06:38:08.083Z,37.16
2022-12-29T06:40:52.777Z,37.93
2022-12-29T06:43:37.474Z,36.00
2022-12-29T06:46:22.286Z,35.05
2022-12-29T06:49:07.567Z,33.79
2022-12-29T06:51:52.304Z,32.81
2022-12-29T06:54:36.997Z,32.18
2022-12-29T06:57:21.750Z,31.07
2022-12-29T07:00:06.395Z,32.71
2022-12-29T07:02:52.167Z,33.45
2022-12-29T07:05:37.187Z,34.92
2022-12-29T07:08:21.913Z,35.14
2022-12-29T07:11:06.590Z,35.34
2022-12-29T07:13:51.437Z,36.02
2022-12-29T07:16:36.316Z,35.68
2022-12-29T07:19:21.195Z,37.01
2022-12-29T07:22:05.890Z,36.13
2022-12-29T07:24:50.677Z,34.60
2022-12-29T07:27:35.476Z,35.14
2022-12-29T07:30:20.277Z,35.44
2022-12-29T07:33:05.122Z,36.84
2022-12-29T07:35:49.792Z,36.06
2022-12-29T07:38:34.592Z,36.65
2022-12-29T07:41:19.281Z,35.88
2022-12-29T07:44:04.032Z,37.76
2022-12-29T07:46:54.639Z,38.63
2022-12-29T07:49:41.547Z,38.28
2022-12-29T07:52:26.224Z,38.12
2022-12-29T07:55:10.958Z,39.68
2022-12-29T07:57:55.824Z,39.47
2022-12-29T08:00:40.576Z,37.76
2022-12-29T08:03:25.319Z,36.22
2022-12-29T08:06:10.025Z,34.83
2022-12-29T08:08:54.671Z,35.01
2022-12-29T08:11:39.296Z,35.38
2022-12-29T08:14:24.021Z,36.01
2022-12-29T08:17:08.753Z,36.37
2022-12-29T08:19:53.572Z,37.36
2022-12-29T08:22:38.485Z,36.24
2022-12-29T08:25:23.265Z,35.57
2022-12-29T08:28:09.220Z,33.56
2022-12-29T08:30:53.943Z,33.72
2022-12-29T08:33:38.728Z,34.20
2022-12-29T08:36:23.548Z,35.78
2022-12-29T08:39:08.820Z,36.29
2022-12-29T08:41:53.638Z,35.48
2022-12-29T08:44:38.388Z,36.49
2022-12-29T08:47:23.339Z,35.56
2022-12-29T08:50:08.495Z,35.81
2022-12-29T08:52:53.242Z,35.11
2022-12-29T08:55:37.998Z,33.54
2022-12-29T08:58:22.980Z,34.22
2022-12-29T09:01:08.329Z,35.06
2022-12-29T09:06:58.074Z,35.31
2022-12-29T09:09:42.821Z,34.05
2022-12-29T09:12:32.942Z,35.62
2022-12-29T09:15:20.855Z,36.09
2022-12-29T09:18:05.698Z,36.88
2022-12-29T09:20:50.329Z,34.55
2022-12-29T09:23:35.189Z,34.05
2022-12-29T09:26:19.884Z,34.91
2022-12-29T09:29:04.641Z,34.46
2022-12-29T09:31:49.330Z,33.95
2022-12-29T09:34:34.705Z,32.36
2022-12-29T09:37:19.393Z,31.04
2022-12-29T09:40:04.070Z,30.90
2022-12-29T09:42:48.966Z,32.08
2022-12-29T09:45:33.719Z,33.49
2022-12-29T09:48:18.543Z,32.54
2022-12-29T09:51:03.207Z,31.52
2022-12-29T09:53:48.141Z,29.89
2022-12-29T09:56:32.797Z,29.28
2022-12-29T09:59:18.251Z,31.48
2022-12-29T10:02:03.122Z,33.27
2022-12-29T10:04:48.274Z,33.58
2022-12-29T10:07:33.020Z,33.63
2022-12-29T10:10:18.250Z,32.69
2022-12-29T10:13:02.986Z,33.40
2022-12-29T10:15:47.576Z,33.06
2022-12-29T10:18:32.312Z,31.99
2022-12-29T10:21:16.888Z,32.90
2022-12-29T10:24:01.655Z,32.24
2022-12-29T10:26:46.334Z,30.53
2022-12-29T10:29:31.144Z,31.03
2022-12-29T10:32:15.824Z,30.85
2022-12-29T10:35:00.842Z,30.62
2022-12-29T10:37:45.566Z,30.66
2022-12-29T10:40:30.369Z,29.71
2022-12-29T10:43:20.954Z,30.28
2022-12-29T10:46:06.177Z,29.38
2022-12-29T10:48:51.363Z,28.21
2022-12-29T10:51:36.285Z,30.21
2022-12-29T10:54:20.901Z,29.08
2022-12-29T10:57:05.556Z,29.13
2022-12-29T10:59:50.183Z,27.59
2022-12-29T11:02:35.108Z,27.71
2022-12-29T11:05:20.323Z,27.53
2022-12-29T11:08:05.059Z,29.34
2022-12-29T11:10:49.713Z,29.45
2022-12-29T11:13:38.951Z,29.45
2022-12-29T11:16:24.554Z,28.91
2022-12-29T11:19:09.373Z,30.27
2022-12-29T11:21:54.194Z,31.86
2022-12-29T11:24:39.049Z,30.96
2022-12-29T11:27:23.847Z,30.72
2022-12-29T11:30:08.498Z,29.11
2022-12-29T11:32:53.068Z,29.41
2022-12-29T11:35:37.926Z,27.08
2022-12-29T11:38:22.758Z,31.23
2022-12-29T11:41:07.581Z,31.96
2022-12-29T11:43:52.364Z,31.12
2022-12-29T11:46:37.441Z,32.28
2022-12-29T11:49:22.047Z,32.00
2022-12-29T11:52:06.751Z,30.99
2022-12-29T11:54:51.582Z,31.41
2022-12-29T11:57:36.151Z,30.99
2022-12-29T12:00:21.124Z,32.08
2022-12-29T12:03:05.869Z,31.30
2022-12-29T12:05:51.049Z,30.60
2022-12-29T12:08:36.181Z,31.47
2022-12-29T12:11:21.257Z,31.85
2022-12-29T12:14:05.985Z,31.00
2022-12-29T12:16:50.934Z,31.07
2022-12-29T12:19:36.087Z,32.90
2022-12-29T12:22:20.926Z,32.56
2022-12-29T12:25:05.739Z,34.01
2022-12-29T12:27:50.448Z,34.88
2022-12-29T12:30:35.409Z,31.86
2022-12-29T12:33:20.471Z,30.75
2022-12-29T12:36:05.258Z,31.91
2022-12-29T12:38:49.894Z,33.10
2022-12-29T12:41:34.752Z,30.17
2022-12-29T12:44:19.652Z,29.47
2022-12-29T12:47:04.423Z,29.25
2022-12-29T12:49:49.098Z,32.35
2022-12-29T12:52:33.941Z,33.27
2022-12-29T12:55:18.807Z,34.10
2022-12-29T12:58:03.591Z,32.44
2022-12-29T13:00:48.399Z,30.84
2022-12-29T13:03:33.133Z,31.86
2022-12-29T13:06:17.838Z,31.29
2022-12-29T13:09:02.643Z,31.75
2022-12-29T13:11:47.305Z,32.63
2022-12-29T13:14:32.122Z,33.10
2022-12-29T13:17:16.854Z,33.27
2022-12-29T13:20:01.760Z,32.26
2022-12-29T13:22:46.441Z,32.03
2022-12-29T13:25:31.294Z,30.69
2022-12-29T13:28:15.988Z,33.18
2022-12-29T13:31:00.882Z,29.65
2022-12-29T13:33:45.950Z,28.47
2022-12-29T13:36:30.766Z,27.06
2022-12-29T13:39:20.668Z,26.67
2022-12-29T13:42:06.342Z,28.17
2022-12-29T13:44:51.271Z,28.07
2022-12-29T13:47:36.126Z,30.58
2022-12-29T13:50:20.858Z,31.11
2022-12-29T13:53:05.631Z,30.99
2022-12-29T13:55:50.442Z,31.17
2022-12-29T13:58:35.328Z,30.76
2022-12-29T14:01:20.204Z,31.28
2022-12-29T14:04:05.441Z,31.85
2022-12-29T14:06:50.117Z,32.27
2022-12-29T14:09:35.642Z,31.73
2022-12-29T14:12:20.840Z,32.79
2022-12-29T14:15:05.647Z,33.12
2022-12-29T14:17:50.481Z,32.76
2022-12-29T14:20:35.254Z,32.83
2022-12-29T14:23:19.932Z,31.98
2022-12-29T14:26:04.657Z,31.97
2022-12-29T14:28:49.319Z,32.06
2022-12-29T14:31:33.974Z,32.32
2022-12-29T14:34:19.156Z,32.26
2022-12-29T14:37:03.975Z,31.98
2022-12-29T14:39:48.716Z,31.51
2022-12-29T14:42:33.449Z,31.90
2022-12-29T14:45:18.310Z,32.65
2022-12-29T14:48:03.256Z,32.94
2022-12-29T14:50:48.089Z,32.94
2022-12-29T14:53:32.845Z,33.07
2022-12-29T14:56:17.455Z,35.14
2022-12-29T14:59:02.252Z,35.05
2022-12-29T15:01:47.066Z,34.94
2022-12-29T15:04:32.270Z,34.46
2022-12-29T15:07:20.304Z,34.69
2022-12-29T15:10:05.121Z,34.73
2022-12-29T15:12:50.399Z,35.05
2022-12-29T15:15:35.127Z,34.66
2022-12-29T15:18:19.872Z,34.72
2022-12-29T15:21:04.614Z,34.29
2022-12-29T15:23:49.402Z,34.22
2022-12-29T15:26:34.270Z,34.55
2022-12-29T15:29:18.891Z,35.23
2022-12-29T15:32:03.699Z,35.37
2022-12-29T15:34:48.487Z,36.52
2022-12-29T15:37:33.255Z,37.14
2022-12-29T15:40:17.967Z,36.83
2022-12-29T15:43:02.795Z,35.97
2022-12-29T15:45:47.594Z,38.24
2022-12-29T15:48:32.186Z,39.61
2022-12-29T15:51:16.860Z,39.57
2022-12-29T15:54:01.672Z,39.90
2022-12-29T15:56:46.628Z,39.52
2022-12-29T15:59:31.311Z,41.59
2022-12-29T16:02:16.290Z,40.06
2022-12-29T16:05:17.297Z,38.90
2022-12-29T16:08:03.150Z,41.08
2022-12-29T16:10:48.023Z,37.60
2022-12-29T16:13:39.596Z,37.38
2022-12-29T16:16:25.437Z,35.94
2022-12-29T16:19:10.780Z,36.47
2022-12-29T16:21:56.045Z,36.63
2022-12-29T16:24:40.975Z,35.71
2022-12-29T16:27:25.827Z,36.47
2022-12-29T16:30:10.915Z,37.39
2022-12-29T16:32:55.523Z,37.33
2022-12-29T16:35:40.454Z,37.59
2022-12-29T16:38:25.139Z,38.17
2022-12-29T16:41:09.941Z,38.12
2022-12-29T16:43:54.562Z,38.96
2022-12-29T16:46:39.400Z,38.12
2022-12-29T16:49:24.188Z,36.74
2022-12-29T16:52:08.841Z,37.03
2022-12-29T16:54:53.557Z,37.08
2022-12-29T16:57:38.225Z,36.87
2022-12-29T17:00:22.919Z,36.59
2022-12-29T17:03:08.307Z,35.39
2022-12-29T17:05:57.520Z,35.80
2022-12-29T17:08:43.062Z,36.21
2022-12-29T17:11:27.732Z,36.39
2022-12-29T17:14:12.518Z,37.50
2022-12-29T17:16:57.702Z,36.85
2022-12-29T17:19:42.887Z,35.38
2022-12-29T17:22:27.701Z,35.89
2022-12-29T17:25:12.539Z,37.61
2022-12-29T17:27:57.313Z,37.88
2022-12-29T17:30:42.144Z,37.53
2022-12-29T17:33:27.462Z,38.32
2022-12-29T17:36:12.271Z,38.24
2022-12-29T17:38:57.649Z,38.77
2022-12-29T17:41:42.470Z,38.37
2022-12-29T17:44:27.319Z,40.58
2022-12-29T17:47:12.173Z,39.89
2022-12-29T17:49:57.033Z,40.25
2022-12-29T17:52:41.860Z,39.57
2022-12-29T17:55:31.264Z,39.89
2022-12-29T17:58:19.811Z,40.06
2022-12-29T18:01:04.661Z,41.21
2022-12-29T18:03:49.357Z,41.17
2022-12-29T18:06:34.646Z,40.26
2022-12-29T18:09:19.463Z,40.13
2022-12-29T18:12:04.513Z,39.72
2022-12-29T18:14:49.503Z,39.49
2022-12-29T18:17:34.273Z,39.17
2022-12-29T18:20:19.070Z,38.69
2022-12-29T18:23:03.754Z,39.16
2022-12-29T18:25:48.566Z,39.00
2022-12-29T18:28:33.276Z,39.33
2022-12-29T18:31:18.186Z,41.15
2022-12-29T18:34:05.238Z,40.55
2022-12-29T18:36:50.197Z,40.76
2022-12-29T18:39:35.102Z,40.30
2022-12-29T18:42:19.778Z,39.45
2022-12-29T18:45:04.619Z,39.89
2022-12-29T18:47:49.296Z,39.46
2022-12-29T18:50:34.063Z,40.43
2022-12-29T18:53:18.785Z,39.80
2022-12-29T18:56:03.620Z,39.06
2022-12-29T18:58:48.333Z,39.70
2022-12-29T19:01:33.075Z,39.77
2022-12-29T19:04:18.218Z,39.73
2022-12-29T19:07:02.986Z,40.39
2022-12-29T19:09:47.815Z,39.54
2022-12-29T19:12:32.732Z,38.46
2022-12-29T19:15:17.848Z,39.05
2022-12-29T19:18:42.004Z,37.87
2022-12-29T19:21:07.262Z,38.68
2022-12-29T19:23:52.199Z,38.77
2022-12-29T19:26:37.182Z,37.90
2022-12-29T19:29:22.218Z,37.71
2022-12-29T19:32:06.931Z,38.36
2022-12-29T19:34:51.854Z,39.11
2022-12-29T19:37:36.817Z,39.30
2022-12-29T19:40:21.477Z,39.70
2022-12-29T19:43:06.297Z,40.09
2022-12-29T19:45:51.019Z,39.49
2022-12-29T19:48:35.880Z,40.14
2022-12-29T19:51:20.608Z,41.17
2022-12-29T19:54:05.373Z,41.13
2022-12-29T19:56:50.150Z,40.45
2022-12-29T19:59:35.011Z,40.90
2022-12-29T20:02:19.883Z,41.13
2022-12-29T20:05:05.072Z,40.24
2022-12-29T20:07:49.796Z,39.97
2022-12-29T20:10:34.610Z,40.02
2022-12-29T20:13:19.494Z,41.54
2022-12-29T20:16:04.233Z,41.38
2022-12-29T20:18:49.096Z,41.28
2022-12-29T20:21:34.149Z,40.28
2022-12-29T20:24:18.853Z,40.90
2022-12-29T20:27:03.461Z,40.68
2022-12-29T20:29:48.349Z,40.43
2022-12-29T20:32:33.144Z,41.39
2022-12-29T20:35:17.749Z,41.39
2022-12-29T20:38:02.678Z,41.86
2022-12-29T20:40:47.389Z,41.56
2022-12-29T20:43:32.310Z,41.08
2022-12-29T20:46:21.430Z,41.57
2022-12-29T20:49:07.359Z,41.11
2022-12-29T20:52:07.599Z,40.26
2022-12-29T20:54:52.517Z,40.63
2022-12-29T20:58:05.581Z,40.99
2022-12-29T21:00:42.421Z,41.79
2022-12-29T21:03:27.184Z,42.76
2022-12-29T21:06:12.026Z,43.09
2022-12-29T21:08:56.678Z,43.08
2022-12-29T21:11:41.548Z,43.37
2022-12-29T21:14:26.349Z,42.43
2022-12-29T21:17:11.268Z,41.79
2022-12-29T21:19:55.900Z,42.28
2022-12-29T21:22:40.706Z,42.56
2022-12-29T21:25:25.480Z,42.31
2022-12-29T21:28:10.229Z,41.86
2022-12-29T21:30:55.570Z,42.55
2022-12-29T21:33:40.197Z,42.24
2022-12-29T21:36:24.915Z,42.09
2022-12-29T21:39:09.791Z,42.25
2022-12-29T21:41:54.647Z,42.35
2022-12-29T21:44:39.417Z,42.21
2022-12-29T21:47:24.137Z,42.17
2022-12-29T21:50:08.852Z,42.76
2022-12-29T21:52:53.578Z,41.85
2022-12-29T21:55:38.373Z,41.73
2022-12-29T21:58:23.041Z,41.05
2022-12-29T22:01:07.912Z,40.73
2022-12-29T22:03:52.676Z,41.28
2022-12-29T22:06:37.542Z,41.62
2022-12-29T22:09:22.203Z,42.06
2022-12-29T22:12:07.027Z,42.58
2022-12-29T22:14:51.679Z,42.79
2022-12-29T22:17:37.850Z,43.24
2022-12-29T22:20:23.097Z,44.19
2022-12-29T22:23:07.832Z,43.49
2022-12-29T22:25:52.609Z,44.75
2022-12-29T22:28:37.802Z,43.25
2022-12-29T22:31:22.656Z,43.56
2022-12-29T22:34:07.242Z,43.92
2022-12-29T22:36:52.112Z,44.45
2022-12-29T22:39:36.906Z,44.48
2022-12-29T22:42:21.514Z,44.16
2022-12-29T22:45:06.301Z,44.07
2022-12-29T22:47:51.134Z,43.58
2022-12-29T22:50:35.888Z,43.40
2022-12-29T22:53:20.630Z,44.20
2022-12-29T22:56:05.465Z,43.97
2022-12-29T22:58:50.074Z,43.47
2022-12-29T23:01:34.917Z,43.36
2022-12-29T23:05:01.617Z,43.52
2022-12-29T23:07:25.000Z,43.02
2022-12-29T23:10:09.719Z,43.92
2022-12-29T23:12:54.353Z,43.48
2022-12-29T23:15:39.230Z,44.41
2022-12-29T23:18:23.868Z,44.27
2022-12-29T23:21:08.755Z,44.42
2022-12-29T23:23:53.520Z,45.49
2022-12-29T23:26:38.313Z,45.00
2022-12-29T23:29:23.144Z,44.70
2022-12-29T23:32:07.930Z,44.42
2022-12-29T23:34:53.325Z,44.67
2022-12-29T23:37:38.217Z,45.20
2022-12-29T23:40:22.960Z,44.54
2022-12-29T23:43:07.748Z,44.19
2022-12-29T23:45:52.560Z,44.20
2022-12-29T23:48:37.255Z,44.43
2022-12-29T23:51:22.096Z,44.52
2022-12-29T23:54:06.822Z,44.90
2022-12-29T23:56:51.466Z,45.39
2022-12-29T23:59:36.186Z,45.61
